createdAt,value
2022-11-16T00:01:49.579Z,98560.88
2022-11-16T00:05:08.783Z,98563.69
2022-11-16T00:08:05.970Z,98563.28
2022-11-16T00:11:06.975Z,98556.41
2022-11-16T00:13:55.607Z,98559.38
2022-11-16T00:16:44.539Z,98566.22
2022-11-16T00:19:33.042Z,98568.28
2022-11-16T00:22:21.574Z,98570.75
2022-11-16T00:25:12.862Z,98581.38
2022-11-16T00:28:01.199Z,98566.56
2022-11-16T00:31:02.516Z,98589.25
2022-11-16T00:33:52.645Z,98578.88
2022-11-16T00:36:40.923Z,98577.03
2022-11-16T00:39:29.043Z,98572.44
2022-11-16T00:42:19.868Z,98566.78
2022-11-16T00:45:08.730Z,98567.16
2022-11-16T00:48:00.455Z,98571.50
2022-11-16T00:50:49.292Z,98568.38
2022-11-16T00:53:39.299Z,98569.09
2022-11-16T00:56:27.541Z,98569.59
2022-11-16T00:59:15.524Z,98575.31
2022-11-16T01:02:03.666Z,98579.34
2022-11-16T01:04:51.810Z,98569.44
2022-11-16T01:07:41.286Z,98573.41
2022-11-16T01:10:30.334Z,98544.44
2022-11-16T01:13:18.511Z,98555.56
2022-11-16T01:16:06.812Z,98551.66
2022-11-16T01:18:55.698Z,98557.38
2022-11-16T01:21:43.632Z,98567.09
2022-11-16T01:24:32.127Z,98562.81
2022-11-16T01:27:20.065Z,98560.34
2022-11-16T01:30:11.821Z,98555.66
2022-11-16T01:32:59.893Z,98556.13
2022-11-16T01:35:47.782Z,98553.00
2022-11-16T01:38:36.226Z,98542.19
2022-11-16T01:41:26.228Z,98544.09
2022-11-16T01:44:32.510Z,98544.31
2022-11-16T01:47:20.487Z,98542.59
2022-11-16T01:50:23.810Z,98542.78
2022-11-16T01:53:14.786Z,98541.16
2022-11-16T01:56:02.896Z,98539.34
2022-11-16T01:58:51.533Z,98537.75
2022-11-16T02:01:39.761Z,98535.34
2022-11-16T02:04:28.188Z,98526.00
2022-11-16T02:08:12.354Z,98528.28
2022-11-16T02:11:27.646Z,98530.59
2022-11-16T02:14:35.455Z,98516.84
2022-11-16T02:17:41.766Z,98514.16
2022-11-16T02:21:06.901Z,98519.63
2022-11-16T02:24:20.432Z,98522.84
2022-11-16T02:27:36.148Z,98511.88
2022-11-16T02:30:24.371Z,98512.72
2022-11-16T02:33:21.310Z,98515.50
2022-11-16T02:36:14.613Z,98510.25
2022-11-16T02:39:10.308Z,98497.16
2022-11-16T02:41:59.850Z,98493.44
2022-11-16T02:44:51.856Z,98505.09
2022-11-16T02:47:41.972Z,98498.63
2022-11-16T02:50:31.184Z,98507.50
2022-11-16T02:53:22.223Z,98495.84
2022-11-16T02:56:13.775Z,98500.84
2022-11-16T02:59:02.085Z,98501.88
2022-11-16T03:02:20.270Z,98493.31
2022-11-16T03:05:15.877Z,98489.88
2022-11-16T03:08:20.031Z,98492.81
2022-11-16T03:11:28.879Z,98489.94
2022-11-16T03:14:21.039Z,98493.94
2022-11-16T03:17:17.856Z,98491.41
2022-11-16T03:20:14.210Z,98502.06
2022-11-16T03:23:07.591Z,98497.97
2022-11-16T03:25:58.321Z,98493.84
2022-11-16T03:29:13.431Z,98496.06
2022-11-16T03:32:21.214Z,98490.81
2022-11-16T03:35:48.627Z,98496.91
2022-11-16T03:38:39.970Z,98494.25
2022-11-16T03:41:31.115Z,98494.44
2022-11-16T03:44:20.262Z,98479.66
2022-11-16T03:47:08.152Z,98483.84
2022-11-16T03:49:56.001Z,98476.56
2022-11-16T03:52:43.962Z,98474.38
2022-11-16T03:55:31.999Z,98462.47
2022-11-16T03:58:20.019Z,98475.19
2022-11-16T04:01:08.517Z,98482.34
2022-11-16T04:03:56.393Z,98488.53
2022-11-16T04:07:02.886Z,98485.28
2022-11-16T04:10:10.001Z,98485.38
2022-11-16T04:13:18.377Z,98490.91
2022-11-16T04:16:28.000Z,98491.75
2022-11-16T04:19:34.423Z,98499.22
2022-11-16T04:22:47.419Z,98496.25
2022-11-16T04:25:39.328Z,98500.63
2022-11-16T04:28:32.283Z,98493.94
2022-11-16T04:32:00.624Z,98495.31
2022-11-16T04:35:07.250Z,98495.66
2022-11-16T04:37:57.597Z,98501.59
2022-11-16T04:40:45.499Z,98507.88
2022-11-16T04:43:33.555Z,98510.38
2022-11-16T04:46:39.899Z,98499.03
2022-11-16T04:49:27.925Z,98499.84
2022-11-16T04:52:16.311Z,98502.53
2022-11-16T04:55:04.833Z,98502.44
2022-11-16T04:57:53.036Z,98512.19
2022-11-16T05:00:41.112Z,98506.81
2022-11-16T05:03:28.985Z,98499.66
2022-11-16T05:06:17.531Z,98496.78
2022-11-16T05:09:05.899Z,98508.16
2022-11-16T05:11:53.794Z,98505.00
2022-11-16T05:14:42.731Z,98515.75
2022-11-16T05:17:31.043Z,98514.16
2022-11-16T05:20:37.660Z,98515.81
2022-11-16T05:23:44.324Z,98507.69
2022-11-16T05:26:32.166Z,98512.16
2022-11-16T05:29:20.083Z,98523.25
2022-11-16T05:32:09.891Z,98516.16
2022-11-16T05:34:58.103Z,98513.59
2022-11-16T05:37:45.885Z,98509.69
2022-11-16T05:40:34.185Z,98511.41
2022-11-16T05:43:22.273Z,98514.66
2022-11-16T05:46:10.233Z,98521.69
2022-11-16T05:49:01.489Z,98524.09
2022-11-16T05:51:49.699Z,98531.91
2022-11-16T05:54:37.613Z,98530.41
2022-11-16T05:57:25.726Z,98531.44
2022-11-16T06:00:17.336Z,98528.69
2022-11-16T06:03:05.538Z,98533.44
2022-11-16T06:05:56.325Z,98529.31
2022-11-16T06:08:44.333Z,98535.06
2022-11-16T06:11:36.155Z,98534.41
2022-11-16T06:14:24.568Z,98532.09
2022-11-16T06:17:14.612Z,98539.56
2022-11-16T06:20:03.529Z,98537.25
2022-11-16T06:22:51.385Z,98534.88
2022-11-16T06:25:39.912Z,98539.66
2022-11-16T06:28:28.790Z,98543.94
2022-11-16T06:31:16.710Z,98543.28
2022-11-16T06:34:17.330Z,98557.56
2022-11-16T06:37:07.521Z,98556.53
2022-11-16T06:39:55.587Z,98552.81
2022-11-16T06:42:47.185Z,98548.03
2022-11-16T06:46:08.020Z,98544.59
2022-11-16T06:49:09.818Z,98541.56
2022-11-16T06:52:03.605Z,98533.63
2022-11-16T06:54:57.214Z,98541.06
2022-11-16T06:57:50.521Z,98563.69
2022-11-16T07:00:38.868Z,98558.84
2022-11-16T07:03:31.503Z,98570.00
2022-11-16T07:06:22.016Z,98569.59
2022-11-16T07:09:28.194Z,98579.03
2022-11-16T07:12:28.936Z,98576.75
2022-11-16T07:15:26.212Z,98569.13
2022-11-16T07:18:14.922Z,98574.00
2022-11-16T07:21:24.384Z,98574.44
2022-11-16T07:27:15.503Z,98579.03
2022-11-16T07:30:17.247Z,98581.06
2022-11-16T07:33:05.471Z,98580.47
2022-11-16T07:36:26.656Z,98588.97
2022-11-16T07:39:22.638Z,98588.97
2022-11-16T07:42:12.872Z,98587.72
2022-11-16T07:45:01.194Z,98597.66
2022-11-16T07:48:06.375Z,98605.84
2022-11-16T07:51:39.850Z,98590.19
2022-11-16T08:05:59.677Z,98593.50
2022-11-16T08:09:22.773Z,98601.19
2022-11-16T08:20:45.274Z,98612.03
2022-11-16T08:24:33.886Z,98606.13
2022-11-16T08:28:29.879Z,98609.59
2022-11-16T08:52:25.486Z,98624.66
2022-11-16T13:36:59.516Z,98554.75
2022-11-16T13:47:26.840Z,98524.50
2022-11-16T18:18:06.352Z,98392.09
2022-11-16T18:21:30.756Z,98379.00
